createdAt,value
2019-05-29T00:01:39.802Z,67.63
2019-05-29T00:04:08.145Z,67.83
2019-05-29T00:06:34.818Z,67.76
2019-05-29T00:09:02.246Z,67.87
2019-05-29T00:11:29.726Z,67.95
2019-05-29T00:13:57.245Z,67.94
2019-05-29T00:16:24.672Z,67.84
2019-05-29T00:18:52.117Z,67.95
2019-05-29T00:21:19.597Z,67.92
2019-05-29T00:23:47.101Z,67.84
2019-05-29T00:26:16.618Z,68.08
2019-05-29T00:28:43.732Z,67.91
2019-05-29T00:31:12.171Z,68.06
2019-05-29T00:33:38.755Z,68.33
2019-05-29T00:36:06.834Z,68.09
2019-05-29T00:38:34.782Z,68.36
2019-05-29T00:41:02.230Z,68.17
2019-05-29T00:43:29.939Z,68.28
2019-05-29T00:45:57.401Z,68.49
2019-05-29T00:48:24.897Z,68.67
2019-05-29T00:50:52.330Z,68.64
2019-05-29T00:53:19.776Z,68.35
2019-05-29T00:55:47.290Z,68.48
2019-05-29T00:58:14.930Z,68.54
2019-05-29T01:00:42.229Z,68.57
2019-05-29T01:03:09.663Z,68.85
2019-05-29T01:05:38.326Z,68.88
2019-05-29T01:08:05.757Z,68.51
2019-05-29T01:10:33.218Z,68.32
2019-05-29T01:13:00.710Z,68.77
2019-05-29T01:15:28.231Z,68.88
2019-05-29T01:17:55.669Z,68.78
2019-05-29T01:20:23.092Z,68.59
2019-05-29T01:22:50.537Z,68.31
2019-05-29T01:25:18.809Z,68.49
2019-05-29T01:27:45.467Z,68.33
2019-05-29T01:30:13.179Z,68.27
2019-05-29T01:32:40.424Z,68.22
2019-05-29T01:35:07.928Z,68.11
2019-05-29T01:37:35.404Z,68.05
2019-05-29T01:40:18.724Z,68.21
2019-05-29T01:42:30.269Z,68.10
2019-05-29T01:45:07.565Z,67.67
2019-05-29T01:47:25.237Z,68.04
2019-05-29T01:49:52.677Z,68.06
2019-05-29T01:52:20.149Z,68.13
2019-05-29T01:54:47.594Z,68.15
2019-05-29T01:57:15.757Z,68.02
2019-05-29T01:59:42.516Z,67.96
2019-05-29T02:02:10.015Z,67.95
2019-05-29T02:04:38.478Z,67.84
2019-05-29T02:07:05.914Z,67.59
2019-05-29T02:09:34.166Z,67.93
2019-05-29T02:12:01.605Z,68.43
2019-05-29T02:14:29.058Z,68.21
2019-05-29T02:16:56.629Z,67.00
2019-05-29T02:19:24.142Z,66.98
2019-05-29T02:21:51.579Z,67.54
2019-05-29T02:24:19.104Z,67.82
2019-05-29T02:26:46.510Z,68.91
2019-05-29T02:29:13.914Z,69.56
2019-05-29T02:31:41.389Z,68.91
2019-05-29T02:34:09.043Z,68.53
2019-05-29T02:36:36.494Z,68.01
2019-05-29T02:39:03.945Z,67.90
2019-05-29T02:41:31.450Z,67.87
2019-05-29T02:43:58.903Z,67.69
2019-05-29T02:46:28.119Z,66.64
2019-05-29T02:48:53.913Z,66.38
2019-05-29T02:51:22.092Z,66.87
2019-05-29T02:53:48.852Z,67.00
2019-05-29T02:56:16.319Z,68.32
2019-05-29T02:58:43.779Z,68.06
2019-05-29T03:01:11.284Z,68.10
2019-05-29T03:03:40.360Z,67.73
2019-05-29T03:06:07.238Z,67.22
2019-05-29T03:08:34.764Z,66.96
2019-05-29T03:11:02.165Z,67.35
2019-05-29T03:13:30.608Z,67.31
2019-05-29T03:16:09.625Z,67.77
2019-05-29T03:18:25.844Z,68.15
2019-05-29T03:20:52.158Z,68.41
2019-05-29T03:23:19.629Z,68.28
2019-05-29T03:25:47.061Z,67.87
2019-05-29T03:28:15.621Z,67.43
2019-05-29T03:30:46.229Z,67.80
2019-05-29T03:33:10.516Z,68.04
2019-05-29T03:35:46.191Z,68.33
2019-05-29T03:38:05.425Z,68.04
2019-05-29T03:40:33.601Z,68.20
2019-05-29T03:43:00.402Z,68.14
2019-05-29T03:45:28.937Z,68.16
2019-05-29T03:47:55.332Z,69.30
2019-05-29T03:50:22.740Z,68.89
2019-05-29T03:52:50.210Z,68.81
2019-05-29T03:55:17.673Z,68.22
2019-05-29T03:57:45.214Z,68.47
2019-05-29T04:00:12.650Z,68.60
2019-05-29T04:02:42.006Z,68.30
2019-05-29T04:05:09.539Z,68.46
2019-05-29T04:07:38.150Z,68.50
2019-05-29T04:10:04.586Z,68.49
2019-05-29T04:12:33.389Z,68.65
2019-05-29T04:14:59.506Z,68.48
2019-05-29T04:17:27.319Z,68.77
2019-05-29T04:19:54.465Z,68.75
2019-05-29T04:22:21.905Z,68.89
2019-05-29T04:24:49.381Z,69.52
2019-05-29T04:27:18.580Z,70.51
2019-05-29T04:29:46.160Z,70.34
2019-05-29T04:32:13.615Z,70.42
2019-05-29T04:34:41.666Z,70.33
2019-05-29T04:37:09.087Z,70.21
2019-05-29T04:39:36.941Z,69.92
2019-05-29T04:42:04.045Z,70.00
2019-05-29T04:44:33.401Z,70.61
2019-05-29T04:47:10.527Z,70.99
2019-05-29T04:49:26.500Z,70.93
2019-05-29T04:51:53.927Z,70.85
2019-05-29T04:54:21.389Z,70.79
2019-05-29T04:56:48.872Z,70.85
2019-05-29T04:59:16.292Z,71.09
2019-05-29T05:01:43.738Z,71.24
2019-05-29T05:04:12.222Z,71.20
2019-05-29T05:06:39.680Z,71.15
2019-05-29T05:09:07.129Z,71.32
2019-05-29T05:11:35.468Z,72.02
2019-05-29T05:14:02.011Z,71.81
2019-05-29T05:16:29.702Z,71.80
2019-05-29T05:18:56.924Z,71.70
2019-05-29T05:21:24.358Z,71.91
2019-05-29T05:23:51.840Z,71.93
2019-05-29T05:26:19.274Z,72.24
2019-05-29T05:28:47.119Z,71.96
2019-05-29T05:31:15.506Z,72.20
2019-05-29T05:33:43.007Z,72.43
2019-05-29T05:36:10.445Z,72.21
2019-05-29T05:38:38.794Z,71.78
2019-05-29T05:41:05.429Z,71.89
2019-05-29T05:43:32.953Z,72.46
2019-05-29T05:46:00.412Z,72.61
2019-05-29T05:48:27.863Z,72.74
2019-05-29T05:50:55.348Z,72.36
2019-05-29T05:53:22.790Z,72.62
2019-05-29T05:55:50.252Z,72.56
2019-05-29T05:58:17.663Z,71.78
2019-05-29T06:00:45.125Z,71.77
2019-05-29T06:03:13.447Z,71.52
2019-05-29T06:05:42.191Z,70.56
2019-05-29T06:08:08.351Z,70.52
2019-05-29T06:10:36.107Z,70.47
2019-05-29T06:13:03.298Z,70.21
2019-05-29T06:15:30.730Z,70.20
2019-05-29T06:18:17.513Z,70.41
2019-05-29T06:20:26.845Z,70.59
2019-05-29T06:22:54.272Z,69.82
2019-05-29T06:25:21.711Z,69.99
2019-05-29T06:27:49.124Z,69.80
2019-05-29T06:30:18.330Z,70.01
2019-05-29T06:32:45.747Z,69.94
2019-05-29T06:35:14.038Z,69.50
2019-05-29T06:37:41.769Z,69.14
2019-05-29T06:40:08.935Z,68.57
2019-05-29T06:42:36.623Z,67.96
2019-05-29T06:45:04.143Z,68.47
2019-05-29T06:47:31.351Z,67.83
2019-05-29T06:49:58.785Z,67.71
2019-05-29T06:52:26.226Z,68.08
2019-05-29T06:54:53.645Z,67.69
2019-05-29T06:57:25.613Z,67.35
2019-05-29T06:59:48.956Z,67.59
2019-05-29T07:02:16.021Z,66.82
2019-05-29T07:04:44.398Z,67.40
2019-05-29T07:07:10.896Z,66.99
2019-05-29T07:09:38.849Z,66.22
2019-05-29T07:12:05.828Z,65.90
2019-05-29T07:14:33.273Z,65.95
2019-05-29T07:17:00.795Z,66.34
2019-05-29T07:19:47.150Z,66.49
2019-05-29T07:21:55.699Z,66.60
2019-05-29T07:24:23.146Z,66.27
2019-05-29T07:26:50.576Z,66.59
2019-05-29T07:29:19.518Z,66.49
2019-05-29T07:31:47.326Z,65.81
2019-05-29T07:34:15.010Z,65.54
2019-05-29T07:36:43.898Z,64.88
2019-05-29T07:39:09.895Z,63.96
2019-05-29T07:41:37.488Z,64.06
2019-05-29T07:44:04.817Z,63.52
2019-05-29T07:46:32.267Z,62.57
2019-05-29T07:48:59.749Z,61.75
2019-05-29T07:51:27.191Z,61.43
2019-05-29T07:53:54.623Z,61.75
2019-05-29T07:56:23.326Z,62.96
2019-05-29T07:59:01.536Z,62.50
2019-05-29T08:01:17.048Z,61.84
2019-05-29T08:03:45.402Z,63.36
2019-05-29T08:06:12.014Z,62.72
2019-05-29T08:08:39.490Z,63.53
2019-05-29T08:11:06.949Z,63.20
2019-05-29T08:13:34.378Z,62.86
2019-05-29T08:16:03.209Z,62.98
2019-05-29T08:18:29.361Z,62.29
2019-05-29T08:20:56.795Z,62.94
2019-05-29T08:23:24.245Z,62.44
2019-05-29T08:25:51.895Z,63.03
2019-05-29T08:28:19.164Z,61.75
2019-05-29T08:30:51.743Z,60.71
2019-05-29T08:33:14.041Z,60.45
2019-05-29T08:35:41.884Z,60.99
2019-05-29T08:38:08.934Z,60.68
2019-05-29T08:40:36.394Z,58.76
2019-05-29T08:43:03.803Z,60.22
2019-05-29T08:45:31.271Z,59.45
2019-05-29T08:47:58.693Z,59.38
2019-05-29T08:50:26.128Z,59.27
2019-05-29T08:52:53.559Z,59.43
2019-05-29T08:55:21.018Z,54.87
2019-05-29T08:57:48.509Z,56.15
2019-05-29T09:00:16.540Z,57.82
2019-05-29T09:02:44.672Z,58.06
2019-05-29T09:05:11.467Z,59.00
2019-05-29T09:07:38.935Z,58.17
2019-05-29T09:10:06.362Z,55.44
2019-05-29T09:12:33.842Z,54.93
2019-05-29T09:15:01.338Z,57.64
2019-05-29T09:17:28.767Z,58.35
2019-05-29T09:19:56.497Z,58.30
2019-05-29T09:22:23.950Z,57.06
2019-05-29T09:24:51.397Z,56.58
2019-05-29T09:27:19.148Z,56.70
2019-05-29T09:29:46.974Z,56.71
2019-05-29T09:32:15.401Z,57.23
2019-05-29T09:34:41.890Z,57.03
2019-05-29T09:37:09.356Z,56.62
2019-05-29T09:39:36.786Z,57.87
2019-05-29T09:42:04.219Z,56.49
2019-05-29T09:44:38.638Z,52.99
2019-05-29T09:47:01.071Z,54.84
2019-05-29T09:49:28.533Z,57.03
2019-05-29T09:51:56.247Z,56.95
2019-05-29T09:54:23.562Z,56.93
2019-05-29T09:56:50.872Z,56.37
2019-05-29T09:59:18.325Z,55.88
2019-05-29T10:01:45.760Z,55.42
2019-05-29T10:04:13.172Z,54.90
2019-05-29T10:06:40.656Z,56.46
2019-05-29T10:09:08.093Z,57.06
2019-05-29T10:11:35.529Z,54.94
2019-05-29T10:14:04.962Z,53.59
2019-05-29T10:16:30.451Z,52.97
2019-05-29T10:18:59.806Z,53.32
2019-05-29T10:21:38.984Z,56.36
2019-05-29T10:23:52.876Z,56.54
2019-05-29T10:26:20.345Z,55.82
2019-05-29T10:31:02.109Z,55.90
2019-05-29T10:31:15.300Z,54.71
2019-05-29T10:33:44.021Z,54.50
2019-05-29T10:36:10.227Z,53.48
2019-05-29T10:38:37.657Z,50.57
2019-05-29T10:41:07.077Z,47.71
2019-05-29T10:43:34.479Z,50.28
2019-05-29T10:46:00.035Z,49.90
2019-05-29T10:48:27.471Z,52.33
2019-05-29T10:50:55.438Z,49.76
2019-05-29T10:53:22.386Z,42.72
2019-05-29T10:55:50.578Z,49.90
2019-05-29T10:58:17.920Z,50.40
2019-05-29T11:00:45.914Z,50.59
2019-05-29T11:03:12.887Z,50.90
2019-05-29T11:05:40.335Z,50.32
2019-05-29T11:08:07.770Z,51.65
2019-05-29T11:10:35.220Z,51.86
2019-05-29T11:13:02.672Z,49.97
2019-05-29T11:15:30.115Z,49.37
2019-05-29T11:17:57.565Z,48.91
2019-05-29T11:20:25.003Z,48.67
2019-05-29T11:22:53.574Z,51.03
2019-05-29T11:25:23.525Z,52.62
2019-05-29T11:27:48.490Z,52.61
2019-05-29T11:30:15.522Z,53.43
2019-05-29T11:32:46.723Z,51.61
2019-05-29T11:35:10.448Z,50.85
2019-05-29T11:37:37.895Z,49.42
2019-05-29T11:40:05.352Z,48.49
2019-05-29T11:42:34.280Z,50.82
2019-05-29T11:45:01.859Z,50.67
2019-05-29T11:47:29.319Z,51.66
2019-05-29T11:50:03.243Z,51.65
2019-05-29T11:52:26.531Z,51.64
2019-05-29T11:54:55.951Z,50.51
2019-05-29T11:57:19.561Z,48.29
2019-05-29T11:59:47.030Z,48.67
2019-05-29T12:02:14.469Z,50.34
2019-05-29T12:04:41.919Z,51.29
2019-05-29T12:07:09.374Z,52.27
2019-05-29T12:09:37.055Z,51.34
2019-05-29T12:12:04.363Z,50.18
2019-05-29T12:14:31.807Z,51.97
2019-05-29T12:17:00.446Z,51.94
2019-05-29T12:19:26.751Z,50.21
2019-05-29T12:21:54.458Z,51.75
2019-05-29T12:24:21.671Z,52.33
2019-05-29T12:26:49.103Z,53.72
2019-05-29T12:29:16.569Z,53.33
2019-05-29T12:31:43.997Z,50.12
2019-05-29T12:34:18.696Z,48.62
2019-05-29T12:36:38.918Z,48.55
2019-05-29T12:39:06.337Z,47.27
2019-05-29T12:41:33.779Z,47.44
2019-05-29T12:44:01.611Z,46.89
2019-05-29T12:46:28.732Z,49.16
2019-05-29T12:48:57.445Z,50.79
2019-05-29T12:51:23.599Z,51.32
2019-05-29T12:53:51.052Z,49.15
2019-05-29T12:56:18.479Z,47.84
2019-05-29T12:58:45.939Z,48.53
2019-05-29T13:01:13.376Z,49.90
2019-05-29T13:03:44.825Z,48.47
2019-05-29T13:06:08.300Z,46.79
2019-05-29T13:08:35.728Z,48.58
2019-05-29T13:11:03.181Z,49.23
2019-05-29T13:13:30.603Z,48.64
2019-05-29T13:15:58.773Z,49.57
2019-05-29T13:18:25.499Z,48.12
2019-05-29T13:20:52.932Z,47.81
2019-05-29T13:23:21.222Z,46.63
2019-05-29T13:25:48.661Z,46.97
2019-05-29T13:28:16.275Z,46.16
2019-05-29T13:30:43.701Z,45.27
2019-05-29T13:33:11.155Z,44.38
2019-05-29T13:35:38.585Z,44.20
2019-05-29T13:38:07.243Z,42.61
2019-05-29T13:40:33.447Z,44.58
2019-05-29T13:43:07.028Z,46.02
2019-05-29T13:45:28.413Z,46.90
2019-05-29T13:47:56.822Z,47.45
2019-05-29T13:50:23.295Z,44.01
2019-05-29T13:52:51.815Z,45.60
2019-05-29T13:55:20.190Z,46.20
2019-05-29T13:57:47.729Z,47.20
2019-05-29T14:00:32.606Z,44.04
2019-05-29T14:02:42.617Z,47.44
2019-05-29T14:05:10.076Z,48.95
2019-05-29T14:07:37.597Z,46.50
2019-05-29T14:10:06.436Z,42.62
2019-05-29T14:12:32.539Z,44.11
2019-05-29T14:14:59.987Z,44.95
2019-05-29T14:17:27.418Z,46.30
2019-05-29T14:19:54.890Z,45.72
2019-05-29T14:22:22.539Z,40.84
2019-05-29T14:24:49.990Z,43.25
2019-05-29T14:27:17.596Z,44.40
2019-05-29T14:29:45.085Z,43.87
2019-05-29T14:32:13.441Z,41.85
2019-05-29T14:34:40.030Z,41.33
2019-05-29T14:37:07.969Z,40.07
2019-05-29T14:39:34.978Z,41.00
2019-05-29T14:42:04.195Z,39.74
2019-05-29T14:44:29.941Z,36.94
2019-05-29T14:46:57.374Z,38.02
2019-05-29T14:49:26.951Z,41.93
2019-05-29T14:51:52.990Z,39.87
2019-05-29T14:54:20.432Z,37.52
2019-05-29T14:56:47.923Z,36.25
2019-05-29T14:59:15.364Z,38.31
2019-05-29T15:01:42.818Z,40.33
2019-05-29T15:04:14.154Z,39.12
2019-05-29T15:06:38.818Z,38.81
2019-05-29T15:09:06.262Z,37.69
2019-05-29T15:11:33.692Z,37.38
2019-05-29T15:14:01.138Z,37.50
2019-05-29T15:16:28.565Z,37.17
2019-05-29T15:18:55.999Z,38.90
2019-05-29T15:21:23.622Z,38.31
2019-05-29T15:23:51.060Z,37.95
2019-05-29T15:26:18.615Z,36.39
2019-05-29T15:28:46.062Z,36.11
2019-05-29T15:31:14.651Z,37.35
2019-05-29T15:33:40.977Z,35.84
2019-05-29T15:36:08.672Z,37.52
2019-05-29T15:38:36.904Z,35.38
2019-05-29T15:41:04.345Z,35.84
2019-05-29T15:43:31.799Z,35.80
2019-05-29T15:45:59.253Z,36.89
2019-05-29T15:48:26.669Z,38.02
2019-05-29T15:50:54.157Z,38.00
2019-05-29T15:53:21.603Z,39.53
2019-05-29T15:55:49.047Z,39.66
2019-05-29T15:58:18.030Z,38.00
2019-05-29T16:00:43.953Z,37.25
2019-05-29T16:03:11.541Z,39.66
2019-05-29T16:05:38.862Z,40.14
2019-05-29T16:08:06.319Z,38.34
2019-05-29T16:10:33.745Z,37.19
2019-05-29T16:13:01.560Z,35.52
2019-05-29T16:15:29.105Z,36.65
2019-05-29T16:17:56.551Z,33.20
2019-05-29T16:20:24.724Z,35.96
2019-05-29T16:22:52.190Z,33.67
2019-05-29T16:25:35.491Z,32.13
2019-05-29T16:27:47.118Z,32.28
2019-05-29T16:30:15.571Z,32.28
2019-05-29T16:32:42.442Z,31.55
2019-05-29T16:35:10.952Z,31.42
2019-05-29T16:37:37.417Z,32.91
2019-05-29T16:40:06.287Z,31.21
2019-05-29T16:42:33.717Z,30.79
2019-05-29T16:45:01.170Z,32.87
2019-05-29T16:47:28.589Z,31.69
2019-05-29T16:49:56.029Z,30.74
2019-05-29T16:52:23.462Z,32.20
2019-05-29T16:54:50.941Z,30.90
2019-05-29T16:57:19.244Z,31.10
2019-05-29T16:59:47.468Z,31.40
2019-05-29T17:02:15.624Z,30.25
2019-05-29T17:04:42.441Z,31.92
2019-05-29T17:07:09.853Z,31.57
2019-05-29T17:09:37.301Z,32.51
2019-05-29T17:12:04.725Z,32.93
2019-05-29T17:14:32.167Z,32.26
2019-05-29T17:16:59.590Z,32.86
2019-05-29T17:19:27.010Z,32.95
2019-05-29T17:21:55.205Z,34.33
2019-05-29T17:24:22.995Z,35.57
2019-05-29T17:26:50.082Z,34.19
2019-05-29T17:29:18.562Z,33.60
2019-05-29T17:31:44.991Z,33.42
2019-05-29T17:34:12.458Z,32.52
2019-05-29T17:36:39.904Z,32.16
2019-05-29T17:39:07.418Z,32.52
2019-05-29T17:41:34.856Z,33.54
2019-05-29T17:44:02.314Z,33.03
2019-05-29T17:46:29.765Z,31.54
2019-05-29T17:48:57.217Z,31.78
2019-05-29T17:51:25.950Z,33.82
2019-05-29T17:53:52.104Z,34.57
2019-05-29T17:56:29.626Z,34.58
2019-05-29T17:58:46.996Z,35.22
2019-05-29T18:01:14.425Z,34.59
2019-05-29T18:03:41.877Z,34.31
2019-05-29T18:06:09.343Z,34.70
2019-05-29T18:08:36.761Z,35.92
2019-05-29T18:11:04.193Z,36.53
2019-05-29T18:13:31.653Z,34.70
2019-05-29T18:15:59.106Z,36.04
2019-05-29T18:18:27.816Z,35.22
2019-05-29T18:20:54.211Z,34.72
2019-05-29T18:23:21.710Z,35.67
2019-05-29T18:25:49.106Z,35.60
2019-05-29T18:28:17.680Z,36.34
2019-05-29T18:30:44.029Z,38.42
2019-05-29T18:33:11.482Z,40.17
2019-05-29T18:35:38.930Z,39.20
2019-05-29T18:38:06.365Z,39.46
2019-05-29T18:40:33.807Z,38.42
2019-05-29T18:43:01.243Z,39.67
2019-05-29T18:45:29.456Z,39.90
2019-05-29T18:47:56.137Z,38.62
2019-05-29T18:50:23.638Z,39.96
2019-05-29T18:52:51.237Z,41.15
2019-05-29T18:55:18.630Z,43.58
2019-05-29T18:57:46.050Z,43.05
2019-05-29T19:00:13.488Z,41.89
2019-05-29T19:02:40.933Z,41.58
2019-05-29T19:05:08.379Z,40.69
2019-05-29T19:07:35.812Z,40.48
2019-05-29T19:10:06.478Z,40.12
2019-05-29T19:12:31.999Z,41.16
2019-05-29T19:14:58.153Z,41.16
2019-05-29T19:17:26.015Z,40.39
2019-05-29T19:19:53.044Z,40.68
2019-05-29T19:22:20.479Z,41.02
2019-05-29T19:24:47.897Z,41.05
2019-05-29T19:27:30.206Z,41.99
2019-05-29T19:29:43.756Z,43.19
2019-05-29T19:32:11.249Z,43.22
2019-05-29T19:34:38.710Z,43.09
2019-05-29T19:37:06.138Z,42.42
2019-05-29T19:39:34.159Z,42.79
2019-05-29T19:42:01.800Z,43.53
2019-05-29T19:44:30.402Z,43.32
2019-05-29T19:46:56.816Z,42.24
2019-05-29T19:49:25.524Z,42.36
2019-05-29T19:51:51.867Z,43.31
2019-05-29T19:54:19.454Z,44.00
2019-05-29T19:56:46.902Z,43.18
2019-05-29T19:59:14.324Z,43.07
2019-05-29T20:01:41.777Z,43.22
2019-05-29T20:04:09.213Z,43.31
2019-05-29T20:06:37.247Z,43.87
2019-05-29T20:09:04.150Z,44.16
2019-05-29T20:11:31.658Z,43.92
2019-05-29T20:13:59.111Z,44.35
2019-05-29T20:16:27.918Z,43.51
2019-05-29T20:18:54.059Z,44.39
2019-05-29T20:21:21.530Z,44.19
2019-05-29T20:23:48.972Z,44.50
2019-05-29T20:26:16.407Z,45.46
2019-05-29T20:28:44.032Z,45.56
2019-05-29T20:31:12.224Z,44.19
2019-05-29T20:33:39.427Z,45.73
2019-05-29T20:36:07.285Z,44.78
2019-05-29T20:38:35.414Z,45.37
2019-05-29T20:41:03.060Z,45.82
2019-05-29T20:43:31.503Z,45.47
2019-05-29T20:45:58.636Z,45.70
2019-05-29T20:48:26.486Z,46.00
2019-05-29T20:50:54.175Z,45.43
2019-05-29T20:53:21.888Z,46.76
2019-05-29T20:55:49.397Z,46.94
2019-05-29T20:58:24.695Z,45.89
2019-05-29T21:00:44.306Z,46.01
2019-05-29T21:03:11.744Z,47.29
2019-05-29T21:05:39.199Z,46.74
2019-05-29T21:08:06.660Z,45.29
2019-05-29T21:10:35.097Z,47.02
2019-05-29T21:13:01.584Z,46.71
2019-05-29T21:15:28.995Z,46.80
2019-05-29T21:17:56.439Z,47.30
2019-05-29T21:20:23.873Z,46.87
2019-05-29T21:22:51.322Z,46.77
2019-05-29T21:25:19.504Z,46.59
2019-05-29T21:27:49.212Z,46.71
2019-05-29T21:30:13.695Z,46.80
2019-05-29T21:32:41.917Z,46.93
2019-05-29T21:35:08.782Z,46.99
2019-05-29T21:37:36.405Z,46.70
2019-05-29T21:40:05.648Z,46.45
2019-05-29T21:42:33.341Z,46.84
2019-05-29T21:45:01.198Z,47.32
2019-05-29T21:47:28.955Z,46.71
2019-05-29T21:49:56.597Z,46.19
2019-05-29T21:52:24.276Z,45.91
2019-05-29T21:54:51.992Z,46.59
2019-05-29T21:57:19.635Z,47.41
2019-05-29T21:59:48.133Z,48.44
2019-05-29T22:02:16.181Z,48.64
2019-05-29T22:04:44.561Z,48.71
2019-05-29T22:07:11.766Z,47.35
2019-05-29T22:09:39.503Z,48.60
2019-05-29T22:12:07.369Z,48.65
2019-05-29T22:14:34.979Z,48.75
2019-05-29T22:17:02.869Z,48.66
2019-05-29T22:19:31.706Z,48.20
2019-05-29T22:21:59.596Z,48.35
2019-05-29T22:24:27.260Z,48.62
2019-05-29T22:26:55.248Z,48.13
2019-05-29T22:29:22.543Z,48.48
2019-05-29T22:31:51.341Z,49.06
2019-05-29T22:34:18.090Z,48.77
2019-05-29T22:36:46.722Z,48.43
2019-05-29T22:39:14.401Z,48.77
2019-05-29T22:41:41.892Z,48.74
2019-05-29T22:44:09.310Z,48.75
2019-05-29T22:46:36.766Z,48.51
2019-05-29T22:49:05.140Z,48.55
2019-05-29T22:51:32.662Z,48.83
2019-05-29T22:54:00.125Z,49.18
2019-05-29T22:56:27.602Z,49.63
2019-05-29T22:58:56.032Z,49.50
2019-05-29T23:03:56.068Z,50.04
2019-05-29T23:06:22.794Z,50.27
2019-05-29T23:08:50.246Z,50.13
2019-05-29T23:11:17.672Z,49.82
2019-05-29T23:13:45.124Z,50.54
2019-05-29T23:16:12.550Z,49.94
2019-05-29T23:18:40.009Z,49.91
2019-05-29T23:21:07.436Z,49.79
2019-05-29T23:23:34.872Z,49.81
2019-05-29T23:26:02.961Z,49.85
2019-05-29T23:28:30.899Z,50.83
2019-05-29T23:30:58.821Z,50.57
2019-05-29T23:33:25.892Z,50.69
2019-05-29T23:35:53.311Z,50.94
2019-05-29T23:38:20.751Z,51.23
2019-05-29T23:40:48.218Z,50.81
2019-05-29T23:43:15.666Z,50.41
2019-05-29T23:45:43.114Z,51.14
2019-05-29T23:48:10.548Z,50.82
2019-05-29T23:50:37.979Z,50.88
2019-05-29T23:53:05.412Z,50.94
2019-05-29T23:55:33.251Z,50.43
2019-05-29T23:58:01.978Z,50.66
